Time;durP1;ratioP1;P1;durP2;ratioP2;P2;SDS_P1;SDS_P2;PMS_P1;PMS_P2;Temp;Humidity;BMP_temperature;BMP_pressure;BME280_temperature;BME280_humidity;BME280_pressure;Samples;Min_cycle;Max_cycle;Signal;HPM_P1;HPM_P2
2022/11/12 00:01:50;;;;;;;19.13;16.37;;;7.80;99.90;;;;;;5076905;28;20450;-67
2022/11/12 00:04:16;;;;;;;19.00;17.10;;;7.80;99.90;;;;;;5076706;28;20477;-67
2022/11/12 00:06:43;;;;;;;18.97;17.13;;;7.70;99.90;;;;;;5077046;28;20508;-67
2022/11/12 00:09:09;;;;;;;20.53;18.53;;;7.70;99.90;;;;;;5077099;28;20453;-67
2022/11/12 00:11:36;;;;;;;20.33;18.33;;;7.70;99.90;;;;;;5076739;28;20493;-66
2022/11/12 00:14:04;;;;;;;20.60;18.60;;;7.70;99.90;;;;;;5076436;28;20474;-67
2022/11/12 00:16:31;;;;;;;26.30;23.80;;;7.60;99.90;;;;;;5076764;28;20507;-67
2022/11/12 00:18:57;;;;;;;21.27;19.17;;;7.60;99.90;;;;;;5076569;28;20458;-67
2022/11/12 00:21:24;;;;;;;20.07;18.07;;;7.50;99.90;;;;;;5076279;28;20592;-67
2022/11/12 00:23:51;;;;;;;19.00;17.20;;;7.50;99.90;;;;;;5076536;28;20547;-67
2022/11/12 00:26:17;;;;;;;20.70;18.87;;;7.50;99.90;;;;;;5076570;28;20507;-67
2022/11/12 00:28:44;;;;;;;20.97;18.73;;;7.50;99.90;;;;;;5076177;28;20937;-68
2022/11/12 00:31:12;;;;;;;20.27;18.33;;;7.40;99.90;;;;;;5076455;28;20527;-67
2022/11/12 00:33:40;;;;;;;19.83;18.07;;;7.40;99.90;;;;;;5076599;28;20501;-66
2022/11/12 00:36:08;;;;;;;19.37;17.47;;;7.40;99.90;;;;;;5076231;28;20541;-67
2022/11/12 00:38:34;;;;;;;19.93;18.13;;;7.40;99.90;;;;;;5076511;28;20450;-67
2022/11/12 00:41:01;;;;;;;20.20;18.40;;;7.40;99.90;;;;;;5076590;28;20442;-67
2022/11/12 00:43:28;;;;;;;18.87;16.87;;;7.30;99.90;;;;;;5077494;28;20527;-67
2022/11/12 00:45:54;;;;;;;20.20;17.17;;;7.30;99.90;;;;;;5075990;28;20987;-67
2022/11/12 00:48:22;;;;;;;18.60;16.83;;;7.30;99.90;;;;;;5076108;28;20480;-67
2022/11/12 00:50:49;;;;;;;17.97;16.37;;;7.30;99.90;;;;;;5076330;28;20860;-67
2022/11/12 00:53:16;;;;;;;18.23;16.63;;;7.30;99.90;;;;;;5075928;28;20976;-67
2022/11/12 00:55:42;;;;;;;17.63;16.03;;;7.20;99.90;;;;;;5076172;28;20495;-67
2022/11/12 00:58:09;;;;;;;17.10;15.60;;;7.20;99.90;;;;;;5075942;28;20450;-67
2022/11/12 01:00:36;;;;;;;16.50;15.03;;;7.20;99.90;;;;;;5076198;28;20461;-68
2022/11/12 01:03:02;;;;;;;15.93;14.27;;;7.20;99.90;;;;;;5076152;28;20450;-67
2022/11/12 01:05:33;;;;;;;17.07;15.57;;;7.20;99.90;;;;;;5076358;28;20454;-67
2022/11/12 01:08:00;;;;;;;17.70;16.00;;;7.20;99.90;;;;;;5076569;28;20891;-67
2022/11/12 01:10:26;;;;;;;17.97;16.27;;;7.20;99.90;;;;;;5086303;28;20450;-67
2022/11/12 01:12:54;;;;;;;17.80;16.10;;;7.20;99.90;;;;;;5087192;28;20466;-67
2022/11/12 01:15:21;;;;;;;17.13;15.47;;;7.20;99.90;;;;;;5084760;28;20857;-68
2022/11/12 01:17:47;;;;;;;16.60;15.13;;;7.20;99.90;;;;;;5077217;28;20507;-68
2022/11/12 01:20:14;;;;;;;16.33;14.83;;;7.10;99.90;;;;;;5075433;28;20477;-67
2022/11/12 01:22:42;;;;;;;17.10;15.33;;;7.20;99.90;;;;;;5075321;28;20450;-67
2022/11/12 01:25:10;;;;;;;17.33;15.83;;;7.20;99.90;;;;;;5075433;28;20543;-67
2022/11/12 01:27:37;;;;;;;16.63;15.20;;;7.10;99.90;;;;;;5075301;28;20459;-67
2022/11/12 01:30:05;;;;;;;18.70;16.80;;;7.10;99.90;;;;;;5075312;28;20844;-67
2022/11/12 01:32:34;;;;;;;17.53;15.93;;;7.10;99.90;;;;;;5074590;28;20474;-67
2022/11/12 01:35:01;;;;;;;18.47;16.60;;;7.10;99.90;;;;;;5074808;28;20572;-67
2022/11/12 01:37:28;;;;;;;15.60;14.20;;;7.10;99.90;;;;;;5074789;28;20945;-66
2022/11/12 01:39:56;;;;;;;19.90;15.63;;;7.10;99.90;;;;;;5075425;28;20454;-67
2022/11/12 01:42:23;;;;;;;17.27;15.60;;;7.10;99.90;;;;;;5075426;28;20446;-66
2022/11/12 01:44:52;;;;;;;17.03;15.37;;;7.00;99.90;;;;;;5075295;28;20481;-67
2022/11/12 01:47:22;;;;;;;16.10;14.47;;;7.00;99.90;;;;;;5075196;28;20454;-67
2022/11/12 01:49:54;;;;;;;15.90;14.53;;;7.00;99.90;;;;;;5075424;28;20464;-67
2022/11/12 01:52:27;;;;;;;15.83;14.43;;;7.00;99.90;;;;;;5074818;28;20514;-67
2022/11/12 01:54:58;;;;;;;17.73;16.10;;;7.00;99.90;;;;;;5074754;28;20890;-67
2022/11/12 01:57:29;;;;;;;19.47;17.47;;;7.00;99.90;;;;;;5075150;28;20438;-67
2022/11/12 02:00:01;;;;;;;18.30;16.50;;;6.90;99.90;;;;;;5074951;28;20484;-68
2022/11/12 02:02:28;;;;;;;16.80;15.20;;;6.80;99.90;;;;;;5074808;28;20842;-68
2022/11/12 02:04:55;;;;;;;18.40;16.60;;;6.80;99.90;;;;;;5074400;28;20880;-67
2022/11/12 02:07:23;;;;;;;17.97;16.23;;;6.70;99.90;;;;;;5074256;28;20450;-68
2022/11/12 02:09:50;;;;;;;19.43;17.63;;;6.70;99.90;;;;;;5074805;28;20511;-67
2022/11/12 02:14:58;;;;;;;19.07;17.43;;;6.60;99.90;;;;;;5074663;28;20466;-67
2022/11/12 02:17:25;;;;;;;17.60;16.07;;;6.60;99.90;;;;;;5075116;28;20947;-67
2022/11/12 02:19:52;;;;;;;19.40;16.93;;;6.60;99.90;;;;;;5074610;28;20454;-67
2022/11/12 02:22:20;;;;;;;19.77;18.07;;;6.60;99.90;;;;;;5075978;28;20442;-68
2022/11/12 02:24:46;;;;;;;20.43;18.53;;;6.60;99.90;;;;;;5078289;28;20465;-67
2022/11/12 02:27:13;;;;;;;19.93;18.10;;;6.50;99.90;;;;;;5077685;28;20999;-67
2022/11/12 02:29:45;;;;;;;20.73;18.67;;;6.50;99.90;;;;;;5077424;28;20446;-66
2022/11/12 02:32:11;;;;;;;18.53;16.63;;;6.50;99.90;;;;;;5077269;28;20539;-67
2022/11/12 02:34:39;;;;;;;19.20;17.40;;;6.50;99.90;;;;;;5076711;28;20496;-67
2022/11/12 02:37:06;;;;;;;21.53;19.17;;;6.50;99.90;;;;;;5077299;28;20969;-67
2022/11/12 02:39:34;;;;;;;18.63;16.93;;;6.50;99.90;;;;;;5077216;28;20515;-67
2022/11/12 02:42:00;;;;;;;17.60;16.00;;;6.50;99.90;;;;;;5076942;28;20450;-67
2022/11/12 02:44:27;;;;;;;18.23;16.63;;;6.50;99.90;;;;;;5077596;28;20989;-66
2022/11/12 02:46:54;;;;;;;19.70;17.80;;;6.50;99.90;;;;;;5077696;28;20446;-67
2022/11/12 02:49:20;;;;;;;18.73;16.93;;;6.50;99.90;;;;;;5077532;28;20466;-67
2022/11/12 02:51:47;;;;;;;19.80;17.97;;;6.60;99.90;;;;;;5077976;28;20473;-67
2022/11/12 02:54:14;;;;;;;20.90;18.90;;;6.50;99.90;;;;;;5076800;28;20875;-68
2022/11/12 02:56:42;;;;;;;19.90;18.10;;;6.50;99.90;;;;;;5074696;28;20450;-67
2022/11/12 02:59:08;;;;;;;19.87;18.07;;;6.50;99.90;;;;;;5074460;28;20454;-67
2022/11/12 03:01:35;;;;;;;20.60;18.70;;;6.40;99.90;;;;;;5074225;28;20454;-67
2022/11/12 03:04:01;;;;;;;20.50;18.43;;;6.40;99.90;;;;;;5073953;28;21046;-66
2022/11/12 03:06:28;;;;;;;18.47;16.67;;;6.40;99.90;;;;;;5074175;28;20446;-67
2022/11/12 03:08:55;;;;;;;21.73;19.63;;;6.30;99.90;;;;;;5073612;28;20938;-67
2022/11/12 03:11:21;;;;;;;20.37;18.37;;;6.20;99.90;;;;;;5074608;28;20480;-67
2022/11/12 03:13:50;;;;;;;19.97;18.10;;;6.10;99.90;;;;;;5073967;28;20496;-68
2022/11/12 03:16:17;;;;;;;19.53;17.73;;;6.10;99.90;;;;;;5074155;28;20499;-68
2022/11/12 03:18:43;;;;;;;19.60;17.83;;;6.10;99.90;;;;;;5074472;28;20507;-68
2022/11/12 03:21:10;;;;;;;19.73;17.87;;;6.10;99.90;;;;;;5074221;28;20450;-67
2022/11/12 03:23:36;;;;;;;19.60;17.80;;;6.00;99.90;;;;;;5079375;28;20466;-67
2022/11/12 03:26:04;;;;;;;19.03;17.10;;;6.10;99.90;;;;;;5090055;28;20507;-67
2022/11/12 03:28:31;;;;;;;16.40;14.90;;;6.00;99.90;;;;;;5090861;28;20476;-67
2022/11/12 03:31:00;;;;;;;18.97;17.10;;;6.00;99.90;;;;;;5084172;28;20449;-67
2022/11/12 03:33:26;;;;;;;18.13;16.43;;;5.90;99.90;;;;;;5074437;28;20853;-68
2022/11/12 03:35:53;;;;;;;16.80;15.33;;;5.90;99.90;;;;;;5073954;28;20722;-66
2022/11/12 03:38:20;;;;;;;16.43;14.83;;;5.90;99.90;;;;;;5074050;28;20453;-67
2022/11/12 03:40:46;;;;;;;18.07;16.47;;;6.00;99.90;;;;;;5074247;28;20458;-68
2022/11/12 03:43:13;;;;;;;17.60;16.03;;;6.00;99.90;;;;;;5073777;28;20535;-67
2022/11/12 03:45:40;;;;;;;17.47;15.87;;;6.00;99.90;;;;;;5073545;28;20503;-67
2022/11/12 03:48:08;;;;;;;17.93;16.17;;;6.00;99.90;;;;;;5074299;28;20510;-67
2022/11/12 03:50:34;;;;;;;17.67;15.93;;;6.00;99.90;;;;;;5074046;28;20937;-67
2022/11/12 03:53:02;;;;;;;17.97;16.03;;;6.00;99.90;;;;;;5073591;28;20469;-67
2022/11/12 03:55:29;;;;;;;17.03;15.57;;;6.00;99.90;;;;;;5073793;28;20450;-67
2022/11/12 03:57:57;;;;;;;16.80;15.40;;;6.10;99.90;;;;;;5077137;28;20489;-67
2022/11/12 04:00:27;;;;;;;18.17;16.57;;;6.10;99.90;;;;;;5077225;28;20507;-66
2022/11/12 04:02:54;;;;;;;17.50;15.90;;;6.10;99.90;;;;;;5076982;28;20457;-67
2022/11/12 04:10:56;;;;;;;17.70;16.10;;;6.00;99.90;;;;;;5071583;28;20516;-66
2022/11/12 04:13:28;;;;;;;16.57;15.20;;;6.00;99.90;;;;;;5077149;28;20536;-67
2022/11/12 04:21:56;;;;;;;15.07;13.97;;;6.00;99.90;;;;;;5059231;28;20431;-67
2022/11/12 04:27:15;;;;;;;13.40;12.30;;;5.90;99.90;;;;;;5077056;28;20410;-67
2022/11/12 04:32:26;;;;;;;14.30;13.20;;;5.60;99.90;;;;;;5076711;28;20448;-67
2022/11/12 04:34:53;;;;;;;13.37;12.27;;;5.50;99.90;;;;;;5076862;28;20977;-67
2022/11/12 04:37:22;;;;;;;14.10;13.00;;;5.50;99.90;;;;;;5076309;28;20794;-67
2022/11/12 04:39:48;;;;;;;15.67;14.37;;;5.50;99.90;;;;;;5076808;28;20457;-67
2022/11/12 04:45:00;;;;;;;15.70;14.30;;;5.40;99.90;;;;;;5076397;28;20986;-67
2022/11/12 04:47:29;;;;;;;24.23;15.27;;;5.30;99.90;;;;;;5076801;28;20462;-67
2022/11/12 04:49:56;;;;;;;16.07;14.47;;;5.30;99.90;;;;;;5076547;28;20446;-67
2022/11/12 04:52:24;;;;;;;16.23;14.63;;;5.30;99.90;;;;;;5076088;28;20980;-67
2022/11/12 04:54:51;;;;;;;30.77;17.73;;;5.40;99.90;;;;;;5076618;28;20478;-67
2022/11/12 04:57:18;;;;;;;18.40;16.33;;;5.40;99.90;;;;;;5076386;28;20858;-67
2022/11/12 04:59:44;;;;;;;26.33;18.67;;;5.30;99.90;;;;;;5079585;28;20458;-67
2022/11/12 05:02:11;;;;;;;18.80;17.00;;;5.30;99.90;;;;;;5089506;28;20442;-67
2022/11/12 05:04:38;;;;;;;18.63;16.80;;;5.30;99.90;;;;;;5090095;28;20474;-67
2022/11/12 05:07:05;;;;;;;19.27;17.47;;;5.30;99.90;;;;;;5084857;28;20909;-67
2022/11/12 05:09:33;;;;;;;19.87;18.03;;;5.30;99.90;;;;;;5084369;28;20503;-68
2022/11/12 05:11:59;;;;;;;20.63;18.43;;;5.30;99.90;;;;;;5077898;28;20446;-68
2022/11/12 05:14:26;;;;;;;20.10;17.70;;;5.20;99.90;;;;;;5075967;28;20462;-68
2022/11/12 05:16:53;;;;;;;17.33;15.80;;;5.30;99.90;;;;;;5076259;28;20450;-68
2022/11/12 05:19:19;;;;;;;17.20;15.60;;;5.30;99.90;;;;;;5076035;28;20503;-66
2022/11/12 05:24:30;;;;;;;17.20;15.67;;;5.40;99.90;;;;;;5076213;28;20450;-67
2022/11/12 05:26:58;;;;;;;15.90;14.40;;;5.40;99.90;;;;;;5075773;28;20454;-67
2022/11/12 05:29:25;;;;;;;15.00;13.60;;;5.40;99.90;;;;;;5075950;28;20790;-67
2022/11/12 05:31:52;;;;;;;13.83;12.63;;;5.40;99.90;;;;;;5076210;28;20531;-67
2022/11/12 05:34:19;;;;;;;12.70;11.70;;;5.50;99.90;;;;;;5075521;28;20535;-66
2022/11/12 05:36:45;;;;;;;14.37;13.10;;;5.60;99.90;;;;;;5075950;28;20846;-68
2022/11/12 05:39:12;;;;;;;12.43;11.40;;;5.50;99.90;;;;;;5083727;28;20503;-67
2022/11/12 05:41:38;;;;;;;12.40;11.40;;;5.50;99.90;;;;;;5087082;28;20457;-67
2022/11/12 05:44:07;;;;;;;13.37;12.27;;;5.60;99.90;;;;;;5085981;28;20520;-67
2022/11/12 05:46:33;;;;;;;11.50;10.60;;;5.60;99.90;;;;;;5076173;28;20458;-67
2022/11/12 05:49:01;;;;;;;11.30;10.50;;;5.70;99.90;;;;;;5076038;28;20523;-67
2022/11/12 05:51:28;;;;;;;11.30;10.50;;;5.70;99.90;;;;;;5075360;28;20454;-67
2022/11/12 05:53:54;;;;;;;12.00;11.10;;;5.70;99.90;;;;;;5075687;28;20478;-67
2022/11/12 05:56:21;;;;;;;10.53;9.73;;;5.70;99.90;;;;;;5075747;28;20848;-68
2022/11/12 05:58:48;;;;;;;10.40;9.60;;;5.70;99.90;;;;;;5075635;28;20458;-68
2022/11/12 06:01:16;;;;;;;11.57;10.57;;;5.70;99.90;;;;;;5074987;28;20461;-66
2022/11/12 06:03:42;;;;;;;12.00;11.10;;;5.70;99.90;;;;;;5075167;28;20496;-67
2022/11/12 06:06:09;;;;;;;11.73;10.83;;;5.70;99.90;;;;;;5075295;28;20503;-66
2022/11/12 06:08:36;;;;;;;10.73;9.93;;;5.60;99.90;;;;;;5074999;28;20454;-67
2022/11/12 06:11:02;;;;;;;12.07;11.07;;;5.70;99.90;;;;;;5075103;28;20553;-67
2022/11/12 06:13:30;;;;;;;11.27;10.43;;;5.70;99.90;;;;;;5074937;28;20527;-67
2022/11/12 06:15:56;;;;;;;10.00;9.30;;;5.70;99.90;;;;;;5075081;28;20450;-68
2022/11/12 06:18:25;;;;;;;11.10;10.20;;;5.70;99.90;;;;;;5074542;28;20484;-67
2022/11/12 06:23:32;;;;;;;11.97;10.97;;;5.60;99.90;;;;;;5074492;28;20519;-66
2022/11/12 06:25:59;;;;;;;11.50;10.40;;;5.60;99.90;;;;;;5076869;28;20533;-67
2022/11/12 06:28:26;;;;;;;13.30;12.20;;;5.50;99.90;;;;;;5076864;28;20496;-67
2022/11/12 06:30:53;;;;;;;12.13;11.13;;;5.50;99.90;;;;;;5074867;28;20500;-68
2022/11/12 06:33:19;;;;;;;12.80;11.63;;;5.50;99.90;;;;;;5074444;28;20540;-68
2022/11/12 06:35:47;;;;;;;12.10;11.20;;;5.50;99.90;;;;;;5075333;28;20450;-67
2022/11/12 06:38:14;;;;;;;13.20;12.10;;;5.50;99.90;;;;;;5075173;28;20450;-67
2022/11/12 06:40:41;;;;;;;14.40;13.20;;;5.40;99.90;;;;;;5074588;28;20937;-66
2022/11/12 06:43:08;;;;;;;13.57;12.47;;;5.30;99.90;;;;;;5075321;28;20446;-68
2022/11/12 06:45:36;;;;;;;14.50;13.27;;;5.30;99.90;;;;;;5075098;28;20454;-67
2022/11/12 06:48:03;;;;;;;16.30;14.80;;;5.20;99.90;;;;;;5084833;28;20489;-67
2022/11/12 06:50:30;;;;;;;19.60;15.50;;;5.20;99.90;;;;;;5095911;28;20434;-67
2022/11/12 06:53:01;;;;;;;40.63;15.77;;;5.20;99.90;;;;;;5095005;28;20969;-67
2022/11/12 06:55:27;;;;;;;21.90;15.67;;;5.10;99.90;;;;;;5089172;28;20454;-67
2022/11/12 06:57:54;;;;;;;74.43;18.83;;;5.20;99.90;;;;;;5079213;28;20450;-67
2022/11/12 07:00:21;;;;;;;78.27;18.00;;;5.20;99.90;;;;;;5082332;28;20454;-67
2022/11/12 07:02:47;;;;;;;153.00;20.50;;;5.20;99.90;;;;;;5076642;28;20450;-67
2022/11/12 07:05:14;;;;;;;68.37;17.60;;;5.30;99.90;;;;;;5074154;28;20470;-67
2022/11/12 07:07:41;;;;;;;250.07;24.83;;;5.40;99.90;;;;;;5074405;28;20503;-66
2022/11/12 07:10:09;;;;;;;695.03;35.47;;;5.40;99.90;;;;;;5074828;28;20450;-67
2022/11/12 07:12:36;;;;;;;961.13;43.80;;;5.40;99.90;;;;;;5076311;28;20457;-66
2022/11/12 07:15:03;;;;;;;652.33;34.17;;;5.40;99.90;;;;;;5075302;28;20531;-67
2022/11/12 07:17:30;;;;;;;462.50;29.23;;;5.40;99.90;;;;;;5073835;28;20446;-67
2022/11/12 07:19:57;;;;;;;359.20;27.70;;;5.50;99.90;;;;;;5074045;28;20458;-67
2022/11/12 07:22:24;;;;;;;528.03;31.20;;;5.50;99.90;;;;;;5073868;28;20983;-66
2022/11/12 07:24:50;;;;;;;351.97;25.10;;;5.60;99.90;;;;;;5073736;28;20477;-67
2022/11/12 07:27:18;;;;;;;424.43;26.63;;;5.70;99.90;;;;;;5073791;28;20962;-66
2022/11/12 07:29:45;;;;;;;18.10;15.80;;;5.90;99.90;;;;;;5074547;28;20830;-67
2022/11/12 07:32:12;;;;;;;351.93;23.40;;;6.00;99.90;;;;;;5077156;28;20462;-68
2022/11/12 07:34:38;;;;;;;406.30;25.70;;;6.20;99.90;;;;;;5078750;28;20481;-67
2022/11/12 07:37:05;;;;;;;54.03;15.63;;;6.20;99.90;;;;;;5077862;28;20468;-67
2022/11/12 07:39:32;;;;;;;428.17;24.97;;;6.30;99.90;;;;;;5077531;28;20454;-67
2022/11/12 07:41:58;;;;;;;261.77;21.47;;;6.40;99.90;;;;;;5077537;28;20450;-67
2022/11/12 07:44:26;;;;;;;78.80;17.10;;;6.40;99.90;;;;;;5078356;28;20913;-67
2022/11/12 07:46:53;;;;;;;134.23;18.57;;;6.40;99.90;;;;;;5077425;28;20945;-66
2022/11/12 07:49:19;;;;;;;18.87;15.60;;;6.40;99.90;;;;;;5077163;28;20461;-68
2022/11/12 07:51:46;;;;;;;15.37;13.87;;;6.50;99.90;;;;;;5077550;28;20867;-67
2022/11/12 07:54:13;;;;;;;14.00;12.00;;;6.60;99.90;;;;;;5077395;28;20489;-67
2022/11/12 07:56:39;;;;;;;14.50;12.50;;;6.80;99.90;;;;;;5077620;28;20492;-68
2022/11/12 07:59:06;;;;;;;13.70;12.50;;;7.10;99.90;;;;;;5077716;28;20458;-67
2022/11/12 08:01:36;;;;;;;10.27;9.37;;;7.50;99.90;;;;;;5077393;28;20449;-67
2022/11/12 08:04:05;;;;;;;7.60;7.00;;;8.40;99.90;;;;;;5077158;28;20473;-68
2022/11/12 08:06:33;;;;;;;6.53;6.13;;;9.70;99.90;;;;;;5077315;28;20454;-68
2022/11/12 08:09:03;;;;;;;7.00;6.47;;;11.10;99.90;;;;;;5077302;28;20503;-68
2022/11/12 08:11:31;;;;;;;5.90;5.60;;;12.30;99.90;;;;;;5077181;28;20441;-68
2022/11/12 08:13:57;;;;;;;6.20;5.80;;;13.50;99.90;;;;;;5077053;28;20482;-67
2022/11/12 08:16:24;;;;;;;5.90;5.60;;;14.30;99.90;;;;;;5077118;28;20469;-68
2022/11/12 08:18:52;;;;;;;5.60;5.30;;;14.60;99.90;;;;;;5077130;28;20458;-68
2022/11/12 08:21:19;;;;;;;6.30;5.83;;;15.40;99.90;;;;;;5077339;28;20500;-67
2022/11/12 08:23:47;;;;;;;5.93;5.60;;;16.40;99.90;;;;;;5077274;28;20466;-68
2022/11/12 08:26:16;;;;;;;6.30;5.90;;;17.20;99.90;;;;;;5077328;28;20453;-67
2022/11/12 08:28:42;;;;;;;5.70;5.30;;;17.90;99.90;;;;;;5077085;28;20455;-68
2022/11/12 08:31:11;;;;;;;5.93;5.43;;;18.10;99.90;;;;;;5076976;28;20477;-69
2022/11/12 08:33:38;;;;;;;6.40;6.00;;;18.30;99.90;;;;;;5076430;28;20485;-68
2022/11/12 08:36:09;;;;;;;6.57;6.10;;;18.50;99.80;;;;;;5076806;28;20450;-69
2022/11/12 08:38:35;;;;;;;5.70;5.30;;;18.70;98.00;;;;;;5076916;28;20445;-69
2022/11/12 08:41:03;;;;;;;5.10;4.80;;;18.70;97.60;;;;;;5076423;28;20937;-69
2022/11/12 08:43:30;;;;;;;6.30;5.90;;;18.80;96.00;;;;;;5076446;28;20615;-66
2022/11/12 08:45:58;;;;;;;5.50;5.20;;;18.20;95.90;;;;;;5076801;28;20523;-66
2022/11/12 08:48:26;;;;;;;5.83;5.43;;;18.00;96.90;;;;;;5076257;28;20494;-66
2022/11/12 08:50:53;;;;;;;6.33;5.93;;;18.10;97.70;;;;;;5076459;28;20929;-65
2022/11/12 08:53:22;;;;;;;6.97;6.47;;;18.40;97.00;;;;;;5076391;28;20833;-66
2022/11/12 08:55:52;;;;;;;6.67;6.27;;;18.40;96.70;;;;;;5076527;28;20466;-65
2022/11/12 08:58:18;;;;;;;5.90;5.50;;;18.20;96.20;;;;;;5076916;28;20454;-65
2022/11/12 09:00:46;;;;;;;6.10;5.70;;;18.20;97.60;;;;;;5078064;28;20484;-66
2022/11/12 09:03:14;;;;;;;6.17;5.67;;;18.20;96.70;;;;;;5077491;28;20553;-66
2022/11/12 09:05:41;;;;;;;6.23;5.83;;;18.40;96.20;;;;;;5079222;28;20457;-65
2022/11/12 09:08:10;;;;;;;6.10;5.70;;;18.40;95.80;;;;;;5078746;28;20478;-64
2022/11/12 09:10:39;;;;;;;5.80;5.43;;;18.30;96.30;;;;;;5077825;28;20454;-65
2022/11/12 09:13:06;;;;;;;6.37;5.87;;;18.30;96.50;;;;;;5077399;28;20829;-66
2022/11/12 09:15:32;;;;;;;6.10;5.70;;;18.40;96.10;;;;;;5076637;28;20450;-65
2022/11/12 09:18:01;;;;;;;6.00;5.60;;;18.50;96.70;;;;;;5076517;28;20992;-65
2022/11/12 09:20:28;;;;;;;6.30;5.90;;;18.60;96.60;;;;;;5077207;28;20500;-66
2022/11/12 09:22:59;;;;;;;6.40;6.00;;;18.80;95.00;;;;;;5075624;28;20536;-66
2022/11/12 09:25:25;;;;;;;5.17;4.87;;;18.70;95.50;;;;;;5076551;28;20469;-66
2022/11/12 09:27:54;;;;;;;5.60;5.20;;;18.60;94.70;;;;;;5076304;28;20508;-66
2022/11/12 09:30:21;;;;;;;6.37;5.77;;;18.50;95.00;;;;;;5075837;28;20941;-66
2022/11/12 09:32:47;;;;;;;17.87;7.43;;;18.10;94.90;;;;;;5076054;28;20454;-66
2022/11/12 09:35:14;;;;;;;6.97;6.47;;;17.60;99.90;;;;;;5076135;28;20837;-67
2022/11/12 09:37:41;;;;;;;6.50;6.10;;;16.90;96.70;;;;;;5075893;28;20450;-66
2022/11/12 09:40:15;;;;;;;5.77;5.37;;;16.30;98.40;;;;;;5075875;28;20467;-66
2022/11/12 09:42:45;;;;;;;6.03;5.63;;;16.30;99.30;;;;;;5075491;28;20884;-66
2022/11/12 09:45:22;;;;;;;5.40;5.00;;;16.50;99.80;;;;;;5075463;28;20466;-65
2022/11/12 09:47:53;;;;;;;6.10;5.70;;;16.90;98.10;;;;;;5080978;28;20462;-65
2022/11/12 09:50:24;;;;;;;5.50;5.10;;;17.00;98.10;;;;;;5080050;28;20497;-66
2022/11/12 09:52:57;;;;;;;6.20;5.50;;;17.20;98.30;;;;;;5075940;28;20438;-65
2022/11/12 09:55:30;;;;;;;6.30;5.90;;;17.40;98.10;;;;;;5075377;28;20546;-67
2022/11/12 09:57:57;;;;;;;5.10;4.60;;;17.10;97.50;;;;;;5075393;28;20500;-67
2022/11/12 10:00:25;;;;;;;7.13;5.30;;;16.90;97.90;;;;;;5075609;28;20451;-66
2022/11/12 10:02:57;;;;;;;6.03;5.63;;;16.70;98.60;;;;;;5074489;28;20983;-67
2022/11/12 10:05:33;;;;;;;5.53;5.03;;;16.50;99.70;;;;;;5075116;28;20484;-66
2022/11/12 10:08:14;;;;;;;6.23;5.73;;;16.60;99.90;;;;;;5075151;28;20442;-67
2022/11/12 10:10:45;;;;;;;4.97;4.67;;;16.70;99.90;;;;;;5074776;28;20503;-67
2022/11/12 10:13:31;;;;;;;5.63;5.23;;;16.90;99.90;;;;;;5074726;28;20921;-67
2022/11/12 10:19:25;;;;;;;7.40;4.93;;;17.00;99.60;;;;;;5074714;28;20460;-67
2022/11/12 10:21:59;;;;;;;5.33;4.93;;;17.10;99.30;;;;;;5074434;28;20445;-67
2022/11/12 10:24:31;;;;;;;6.17;5.00;;;16.80;99.10;;;;;;5074815;28;20470;-67
2022/11/12 10:26:59;;;;;;;5.80;5.30;;;16.60;99.90;;;;;;5074090;28;20975;-67
2022/11/12 10:29:30;;;;;;;5.57;5.20;;;16.10;99.90;;;;;;5074279;28;20528;-66
2022/11/12 10:32:01;;;;;;;5.27;4.97;;;15.90;99.90;;;;;;5074553;28;20463;-68
2022/11/12 10:34:29;;;;;;;6.47;5.87;;;15.80;99.90;;;;;;5074708;28;20531;-67
2022/11/12 10:37:01;;;;;;;5.30;4.97;;;15.80;99.90;;;;;;5074436;28;20477;-66
2022/11/12 10:39:35;;;;;;;5.07;4.77;;;15.80;99.90;;;;;;5074324;28;20438;-67
2022/11/12 10:42:04;;;;;;;4.97;4.67;;;15.80;99.90;;;;;;5074332;28;20456;-68
2022/11/12 10:44:31;;;;;;;5.03;4.73;;;16.00;99.90;;;;;;5074076;28;20502;-66
2022/11/12 10:47:18;;;;;;;4.33;3.90;;;16.10;99.90;;;;;;5073809;28;20522;-67
2022/11/12 10:50:15;;;;;;;4.50;4.30;;;16.20;99.90;;;;;;5074051;28;20457;-68
2022/11/12 10:52:53;;;;;;;4.90;4.50;;;16.10;99.90;;;;;;5074487;28;20442;-67
2022/11/12 10:55:23;;;;;;;4.87;4.50;;;15.80;99.90;;;;;;5076485;28;20465;-67
2022/11/12 10:58:04;;;;;;;5.17;4.87;;;15.60;99.90;;;;;;5074996;28;20806;-68
2022/11/12 11:00:31;;;;;;;5.37;5.07;;;15.50;99.90;;;;;;5074974;28;20442;-67
2022/11/12 11:03:01;;;;;;;6.27;5.77;;;15.40;99.90;;;;;;5074535;28;20457;-68
2022/11/12 11:05:32;;;;;;;5.00;4.70;;;15.40;99.90;;;;;;5076229;28;20929;-67
2022/11/12 11:07:58;;;;;;;5.27;4.97;;;15.30;99.90;;;;;;5078544;28;20434;-67
2022/11/12 11:10:28;;;;;;;4.80;4.50;;;15.40;99.90;;;;;;5078050;28;20937;-67
2022/11/12 11:13:18;;;;;;;8.80;6.40;;;15.40;99.90;;;;;;5078278;28;20503;-67
2022/11/12 11:15:59;;;;;;;5.93;5.53;;;15.40;99.90;;;;;;5078378;28;20566;-67
2022/11/12 11:18:27;;;;;;;5.90;5.40;;;15.30;99.90;;;;;;5078185;28;20440;-67
2022/11/12 11:21:04;;;;;;;5.60;5.10;;;15.20;99.90;;;;;;5077708;28;20454;-66
2022/11/12 11:23:36;;;;;;;5.97;5.47;;;15.30;99.90;;;;;;5077799;28;20474;-67
2022/11/12 11:26:15;;;;;;;6.40;5.90;;;15.20;99.90;;;;;;5077895;28;20480;-68
2022/11/12 11:28:50;;;;;;;6.20;5.70;;;15.20;99.90;;;;;;5077575;28;20488;-68
2022/11/12 11:31:26;;;;;;;6.37;5.80;;;15.20;99.90;;;;;;5077883;28;20437;-67
2022/11/12 11:34:04;;;;;;;6.00;5.60;;;15.00;99.90;;;;;;5077516;28;20470;-67
2022/11/12 11:36:38;;;;;;;5.70;5.30;;;15.00;99.90;;;;;;5077907;28;20441;-67
2022/11/12 11:39:18;;;;;;;5.70;5.27;;;15.10;99.90;;;;;;5078231;28;20441;-68
2022/11/12 11:41:59;;;;;;;6.47;5.97;;;15.20;99.90;;;;;;5078471;28;20449;-67
2022/11/12 11:44:36;;;;;;;6.93;6.27;;;15.20;99.90;;;;;;5078238;28;20473;-67
2022/11/12 11:47:16;;;;;;;5.87;5.47;;;15.30;99.90;;;;;;5077861;28;20835;-67
2022/11/12 11:50:08;;;;;;;6.70;6.10;;;15.20;99.90;;;;;;5077599;28;20465;-68
2022/11/12 11:52:45;;;;;;;6.97;6.47;;;15.20;99.90;;;;;;5077303;28;20445;-66
2022/11/12 11:55:23;;;;;;;6.73;6.00;;;15.20;99.90;;;;;;5078079;28;20542;-66
2022/11/12 11:57:57;;;;;;;8.60;7.80;;;15.30;99.90;;;;;;5077221;28;20438;-67
2022/11/12 12:00:28;;;;;;;6.77;6.17;;;15.20;99.90;;;;;;5076827;28;20434;-66
2022/11/12 12:03:18;;;;;;;12.23;7.20;;;15.00;99.90;;;;;;5076717;28;20435;-67
2022/11/12 12:05:58;;;;;;;6.80;6.30;;;15.00;99.90;;;;;;5076766;28;20446;-67
2022/11/12 12:08:36;;;;;;;6.70;6.17;;;15.00;99.90;;;;;;5076827;28;20442;-66
2022/11/12 12:11:11;;;;;;;7.27;6.67;;;15.00;99.90;;;;;;5077579;28;20441;-66
2022/11/12 12:13:49;;;;;;;7.57;7.03;;;14.90;99.90;;;;;;5081341;28;20473;-66
2022/11/12 12:16:34;;;;;;;6.97;6.37;;;15.00;99.90;;;;;;5077404;28;20977;-66
2022/11/12 12:19:10;;;;;;;8.00;6.70;;;15.00;99.90;;;;;;5076649;28;20487;-66
2022/11/12 12:21:44;;;;;;;8.43;7.57;;;15.10;99.90;;;;;;5076590;28;20441;-67
2022/11/12 12:24:17;;;;;;;6.67;6.17;;;15.10;99.90;;;;;;5076378;28;20478;-67
2022/11/12 12:26:47;;;;;;;7.73;7.10;;;15.10;99.90;;;;;;5076460;28;20434;-66
2022/11/12 12:29:18;;;;;;;6.27;5.80;;;15.20;99.90;;;;;;5075964;28;20910;-65
2022/11/12 12:31:49;;;;;;;7.97;7.43;;;15.30;99.90;;;;;;5077003;28;20447;-66
2022/11/12 12:34:22;;;;;;;7.73;5.70;;;15.40;99.90;;;;;;5076083;28;20949;-65
2022/11/12 12:36:54;;;;;;;7.47;6.70;;;15.40;99.90;;;;;;5076329;28;20967;-66
2022/11/12 12:39:25;;;;;;;6.60;6.10;;;15.40;99.90;;;;;;5078229;28;20438;-66
2022/11/12 12:41:58;;;;;;;7.40;6.90;;;15.40;99.90;;;;;;5078386;28;20434;-67
2022/11/12 12:44:58;;;;;;;10.00;6.87;;;15.40;99.90;;;;;;5078879;28;20478;-67
2022/11/12 12:47:14;;;;;;;8.80;7.53;;;15.40;99.90;;;;;;5078083;28;21014;-66
2022/11/12 12:49:43;;;;;;;7.67;6.97;;;15.40;99.90;;;;;;5076004;28;20531;-66
2022/11/12 12:52:14;;;;;;;7.33;6.77;;;15.30;99.90;;;;;;5075864;28;20507;-67
2022/11/12 12:54:57;;;;;;;7.80;7.10;;;15.30;99.90;;;;;;5077094;28;20883;-66
2022/11/12 12:57:32;;;;;;;8.57;7.07;;;15.30;99.90;;;;;;5076042;28;20507;-66
2022/11/12 13:00:34;;;;;;;7.83;6.50;;;15.20;99.90;;;;;;5075937;28;20433;-66
2022/11/12 13:03:01;;;;;;;6.77;6.27;;;15.10;99.90;;;;;;5075480;28;20905;-66
2022/11/12 13:05:29;;;;;;;8.17;7.50;;;14.90;99.90;;;;;;5076520;28;20623;-66
2022/11/12 13:08:02;;;;;;;7.97;7.27;;;14.90;99.90;;;;;;5076032;28;20503;-66
2022/11/12 13:10:54;;;;;;;7.53;6.93;;;14.80;99.90;;;;;;5075705;28;20905;-67
2022/11/12 13:13:30;;;;;;;7.20;6.70;;;14.80;99.90;;;;;;5075646;28;20474;-67
2022/11/12 13:15:59;;;;;;;6.63;6.17;;;14.70;99.90;;;;;;5075271;28;20969;-66
2022/11/12 13:18:58;;;;;;;6.57;5.97;;;14.70;99.90;;;;;;5075638;28;20454;-66
2022/11/12 13:21:25;;;;;;;6.90;6.33;;;14.70;99.90;;;;;;5076058;28;20466;-66
2022/11/12 13:24:09;;;;;;;7.67;7.07;;;14.70;99.90;;;;;;5075361;28;20543;-68